createdAt,value
2018-07-04T00:00:40.169Z,95.98
2018-07-04T00:01:40.049Z,88.26
2018-07-04T00:02:39.927Z,83.01
2018-07-04T00:03:39.802Z,80.43
2018-07-04T00:04:39.679Z,78.20
2018-07-04T00:05:39.555Z,75.43
2018-07-04T00:06:39.429Z,73.91
2018-07-04T00:07:39.309Z,72.00
2018-07-04T00:08:39.182Z,71.81
2018-07-04T00:09:39.059Z,72.19
2018-07-04T00:10:38.936Z,72.19
2018-07-04T00:11:38.811Z,72.09
2018-07-04T00:12:38.690Z,72.28
2018-07-04T00:13:38.563Z,72.00
2018-07-04T00:14:38.441Z,72.57
2018-07-04T00:15:38.318Z,72.00
2018-07-04T00:16:38.194Z,72.67
2018-07-04T00:17:38.072Z,72.86
2018-07-04T00:18:37.945Z,72.19
2018-07-04T00:19:37.823Z,72.57
2018-07-04T00:20:37.703Z,72.19
2018-07-04T00:21:37.589Z,71.91
2018-07-04T00:24:08.948Z,72.76
2018-07-04T00:25:08.760Z,79.72
2018-07-04T00:27:01.480Z,77.15
2018-07-04T00:28:01.296Z,75.24
2018-07-04T00:29:53.992Z,80.11
2018-07-04T00:30:53.832Z,77.72
2018-07-04T00:32:46.555Z,76.10
2018-07-04T00:33:46.369Z,76.01
2018-07-04T00:35:39.051Z,74.48
2018-07-04T00:36:38.908Z,78.58
2018-07-04T00:38:31.627Z,74.38
2018-07-04T00:39:31.443Z,73.72
2018-07-04T00:41:24.174Z,73.52
2018-07-04T00:42:23.987Z,73.91
2018-07-04T00:44:16.707Z,75.72
2018-07-04T00:45:16.533Z,76.67
2018-07-04T00:46:16.405Z,76.39
2018-07-04T00:47:16.284Z,74.86
2018-07-04T00:48:16.160Z,73.14
2018-07-04T00:49:16.036Z,72.28
2018-07-04T00:50:15.910Z,72.09
2018-07-04T00:51:15.789Z,72.38
2018-07-04T00:52:15.663Z,71.91
2018-07-04T00:53:15.540Z,72.19
2018-07-04T00:54:15.418Z,72.00
2018-07-04T00:55:15.296Z,71.91
2018-07-04T00:56:15.169Z,71.52
2018-07-04T00:57:15.045Z,71.91
2018-07-04T00:58:14.919Z,72.38
2018-07-04T00:59:14.796Z,72.48
2018-07-04T01:00:14.673Z,71.91
2018-07-04T01:01:14.551Z,72.00
2018-07-04T01:02:14.424Z,71.72
2018-07-04T01:03:14.304Z,70.86
2018-07-04T01:04:14.179Z,70.67
2018-07-04T01:05:14.110Z,70.57
2018-07-04T01:06:13.942Z,71.72
2018-07-04T01:07:13.811Z,72.38
2018-07-04T01:08:13.687Z,72.48
2018-07-04T01:09:13.567Z,71.43
2018-07-04T01:10:13.439Z,71.43
2018-07-04T01:11:13.316Z,72.48
2018-07-04T01:12:13.192Z,73.91
2018-07-04T01:13:13.070Z,73.52
2018-07-04T01:14:12.945Z,72.57
2018-07-04T01:15:12.822Z,71.62
2018-07-04T01:16:12.710Z,70.95
2018-07-04T01:17:12.576Z,70.19
2018-07-04T01:18:12.452Z,69.81
2018-07-04T01:19:12.329Z,69.52
2018-07-04T01:20:12.205Z,70.09
2018-07-04T01:21:12.081Z,71.14
2018-07-04T01:22:11.957Z,71.33
2018-07-04T01:23:11.834Z,72.67
2018-07-04T01:24:11.711Z,72.38
2018-07-04T01:25:11.589Z,72.76
2018-07-04T01:26:11.464Z,74.57
2018-07-04T01:27:11.341Z,73.81
2018-07-04T01:28:11.216Z,77.82
2018-07-04T01:29:11.093Z,81.06
2018-07-04T01:30:10.970Z,78.96
2018-07-04T01:31:10.849Z,79.72
2018-07-04T01:32:10.726Z,75.91
2018-07-04T01:33:10.602Z,75.20
2018-07-04T01:34:10.483Z,74.63
2018-07-04T01:35:10.354Z,72.82
2018-07-04T01:36:10.228Z,72.09
2018-07-04T01:37:10.107Z,72.00
2018-07-04T01:38:09.981Z,72.16
2018-07-04T01:39:09.859Z,71.58
2018-07-04T01:40:09.734Z,71.72
2018-07-04T01:41:09.611Z,71.68
2018-07-04T01:42:09.493Z,71.58
2018-07-04T01:43:09.364Z,71.58
2018-07-04T01:44:09.237Z,71.48
2018-07-04T01:45:09.118Z,71.48
2018-07-04T01:46:08.990Z,70.95
2018-07-04T01:47:08.866Z,70.47
2018-07-04T01:48:08.751Z,69.96
2018-07-04T01:49:08.621Z,72.34
2018-07-04T01:50:08.497Z,73.49
2018-07-04T01:51:08.372Z,72.25
2018-07-04T01:52:08.249Z,71.68
2018-07-04T01:53:08.125Z,70.92
2018-07-04T01:54:08.001Z,70.53
2018-07-04T01:55:07.879Z,70.34
2018-07-04T01:56:07.755Z,70.25
2018-07-04T01:57:07.634Z,68.91
2018-07-04T01:58:07.507Z,68.53
2018-07-04T01:59:07.384Z,68.91
2018-07-04T02:00:07.261Z,69.01
2018-07-04T02:01:07.135Z,69.01
2018-07-04T02:02:07.016Z,68.34
2018-07-04T02:03:06.885Z,68.72
2018-07-04T02:04:06.775Z,68.63
2018-07-04T02:05:06.642Z,70.44
2018-07-04T02:06:06.516Z,72.06
2018-07-04T02:07:06.390Z,72.06
2018-07-04T02:08:06.271Z,70.72
2018-07-04T02:09:06.143Z,71.77
2018-07-04T02:10:06.019Z,71.58
2018-07-04T02:11:05.895Z,72.16
2018-07-04T02:12:05.770Z,72.72
2018-07-04T02:13:05.652Z,73.21
2018-07-04T02:14:05.528Z,73.68
2018-07-04T02:15:05.400Z,74.44
2018-07-04T02:16:05.275Z,74.82
2018-07-04T02:17:05.155Z,75.68
2018-07-04T02:18:05.031Z,75.49
2018-07-04T02:19:04.904Z,76.73
2018-07-04T02:20:04.780Z,76.35
2018-07-04T02:21:04.659Z,77.78
2018-07-04T02:22:04.533Z,78.54
2018-07-04T02:23:04.408Z,79.11
2018-07-04T02:24:04.285Z,79.11
2018-07-04T02:25:04.159Z,79.02
2018-07-04T02:26:04.036Z,78.92
2018-07-04T02:27:03.914Z,79.49
2018-07-04T02:28:03.787Z,77.49
2018-07-04T02:29:03.664Z,76.73
2018-07-04T02:30:03.540Z,74.92
2018-07-04T02:31:03.413Z,73.68
2018-07-04T02:32:03.289Z,73.87
2018-07-04T02:33:03.167Z,74.63
2018-07-04T02:34:03.042Z,75.68
2018-07-04T02:35:02.916Z,75.49
2018-07-04T02:36:02.795Z,76.54
2018-07-04T02:37:02.673Z,77.40
2018-07-04T02:38:02.557Z,77.69
2018-07-04T02:39:02.422Z,76.73
2018-07-04T02:40:02.299Z,76.73
2018-07-04T02:41:02.176Z,76.35
2018-07-04T02:42:02.048Z,77.40
2018-07-04T02:43:01.925Z,76.82
2018-07-04T02:44:01.806Z,77.69
2018-07-04T02:45:01.751Z,79.97
2018-07-04T02:46:01.553Z,81.88
2018-07-04T02:47:01.435Z,81.02
2018-07-04T02:48:01.308Z,79.49
2018-07-04T02:49:01.185Z,78.92
2018-07-04T02:50:01.059Z,78.35
2018-07-04T02:51:00.932Z,77.69
2018-07-04T02:52:00.814Z,77.30
2018-07-04T02:53:00.688Z,77.20
2018-07-04T02:54:00.561Z,76.64
2018-07-04T02:55:00.436Z,76.73
2018-07-04T02:56:00.313Z,77.87
2018-07-04T02:57:00.189Z,77.30
2018-07-04T02:58:00.064Z,76.35
2018-07-04T02:58:59.940Z,75.01
2018-07-04T02:59:59.818Z,77.30
2018-07-04T03:00:59.693Z,77.20
2018-07-04T03:01:59.573Z,78.16
2018-07-04T03:02:59.443Z,79.21
2018-07-04T03:03:59.322Z,79.21
2018-07-04T03:04:59.194Z,78.54
2018-07-04T03:05:59.077Z,78.92
2018-07-04T03:06:58.947Z,78.35
2018-07-04T03:07:58.823Z,82.26
2018-07-04T03:08:58.699Z,83.40
2018-07-04T03:09:58.574Z,81.88
2018-07-04T03:10:58.451Z,81.68
2018-07-04T03:11:58.327Z,80.73
2018-07-04T03:12:58.203Z,79.40
2018-07-04T03:13:58.079Z,78.54
2018-07-04T03:14:57.955Z,77.87
2018-07-04T03:15:57.835Z,78.54
2018-07-04T03:16:57.708Z,78.44
2018-07-04T03:17:57.580Z,77.87
2018-07-04T03:18:57.461Z,77.87
2018-07-04T03:19:57.337Z,81.02
2018-07-04T03:20:57.215Z,79.49
2018-07-04T03:21:57.093Z,83.59
2018-07-04T03:22:56.962Z,83.97
2018-07-04T03:23:56.852Z,85.88
2018-07-04T03:24:56.719Z,86.55
2018-07-04T03:25:56.591Z,86.07
2018-07-04T03:26:56.467Z,83.40
2018-07-04T03:27:56.343Z,79.78
2018-07-04T03:28:56.220Z,78.54
2018-07-04T03:29:56.094Z,77.97
2018-07-04T03:30:55.970Z,78.16
2018-07-04T03:31:55.850Z,79.02
2018-07-04T03:32:55.778Z,77.40
2018-07-04T03:33:55.597Z,78.54
2018-07-04T03:34:55.476Z,77.59
2018-07-04T03:35:55.362Z,78.35
2018-07-04T03:36:55.226Z,79.97
2018-07-04T03:37:55.101Z,80.26
2018-07-04T03:38:54.976Z,78.35
2018-07-04T03:39:54.852Z,78.35
2018-07-04T03:40:54.729Z,80.26
2018-07-04T03:41:54.606Z,82.17
2018-07-04T03:42:54.479Z,79.97
2018-07-04T03:43:54.354Z,79.11
2018-07-04T03:44:54.231Z,85.60
2018-07-04T03:45:54.108Z,82.26
2018-07-04T03:46:53.985Z,81.78
2018-07-04T03:47:53.862Z,82.45
2018-07-04T03:48:53.734Z,82.64
2018-07-04T03:49:53.615Z,82.07
2018-07-04T03:50:53.484Z,81.88
2018-07-04T03:51:53.363Z,81.30
2018-07-04T03:52:53.238Z,80.64
2018-07-04T03:53:53.112Z,79.02
2018-07-04T03:54:52.992Z,78.64
2018-07-04T03:55:52.865Z,78.16
2018-07-04T03:56:52.740Z,78.44
2018-07-04T03:57:52.618Z,77.69
2018-07-04T03:58:52.491Z,76.44
2018-07-04T03:59:52.368Z,76.16
2018-07-04T04:00:52.244Z,76.64
2018-07-04T04:01:52.120Z,77.40
2018-07-04T04:02:51.996Z,77.49
2018-07-04T04:03:51.871Z,77.11
2018-07-04T04:04:51.747Z,76.73
2018-07-04T04:05:51.624Z,76.73
2018-07-04T04:06:51.498Z,76.73
2018-07-04T04:07:51.374Z,77.40
2018-07-04T04:08:51.250Z,78.16
2018-07-04T04:09:51.125Z,79.97
2018-07-04T04:10:51.008Z,80.83
2018-07-04T04:11:50.877Z,79.78
2018-07-04T04:12:50.759Z,79.97
2018-07-04T04:13:50.631Z,79.02
2018-07-04T04:14:50.506Z,78.64
2018-07-04T04:15:50.382Z,79.30
2018-07-04T04:16:50.255Z,80.44
2018-07-04T04:17:50.136Z,83.40
2018-07-04T04:18:50.008Z,83.88
2018-07-04T04:19:49.926Z,83.40
2018-07-04T04:20:49.759Z,84.36
2018-07-04T04:21:49.636Z,85.12
2018-07-04T04:22:49.509Z,84.64
2018-07-04T04:23:49.389Z,81.78
2018-07-04T04:24:49.262Z,79.68
2018-07-04T04:25:49.758Z,79.21
2018-07-04T04:26:49.016Z,79.21
2018-07-04T04:27:48.889Z,78.92
2018-07-04T04:28:48.765Z,79.68
2018-07-04T04:29:48.641Z,80.83
2018-07-04T04:30:48.523Z,80.35
2018-07-04T04:31:48.394Z,79.40
2018-07-04T04:32:48.271Z,79.68
2018-07-04T04:33:48.188Z,80.73
2018-07-04T04:34:48.022Z,80.92
2018-07-04T04:35:47.900Z,81.12
2018-07-04T04:36:47.774Z,80.77
2018-07-04T04:37:47.650Z,80.96
2018-07-04T04:38:47.528Z,80.68
2018-07-04T04:39:47.403Z,81.25
2018-07-04T04:40:47.280Z,83.25
2018-07-04T04:41:47.155Z,82.68
2018-07-04T04:42:47.032Z,83.06
2018-07-04T04:43:46.906Z,83.44
2018-07-04T04:44:46.785Z,83.73
2018-07-04T04:45:46.663Z,84.01
2018-07-04T04:46:46.534Z,83.06
2018-07-04T04:47:46.412Z,83.06
2018-07-04T04:48:46.288Z,83.06
2018-07-04T04:49:46.165Z,82.49
2018-07-04T04:50:46.042Z,82.78
2018-07-04T04:51:45.922Z,83.25
2018-07-04T04:52:45.798Z,83.44
2018-07-04T04:53:46.341Z,84.49
2018-07-04T04:54:45.552Z,86.59
2018-07-04T04:55:45.425Z,86.92
2018-07-04T04:56:45.300Z,87.02
2018-07-04T04:57:45.181Z,86.35
2018-07-04T04:58:45.055Z,86.92
2018-07-04T04:59:44.932Z,88.35
2018-07-04T05:00:44.806Z,89.31
2018-07-04T05:01:44.682Z,93.70
2018-07-04T05:02:44.564Z,99.04
2018-07-04T05:03:44.436Z,99.99
2018-07-04T05:04:44.313Z,99.99
2018-07-04T05:05:44.189Z,99.99
2018-07-04T05:06:44.067Z,99.99
2018-07-04T05:07:43.945Z,99.99
2018-07-04T05:08:43.821Z,99.99
2018-07-04T05:09:43.698Z,99.99
2018-07-04T05:10:43.574Z,99.99
2018-07-04T05:11:43.450Z,99.99
2018-07-04T05:12:43.330Z,99.99
2018-07-04T05:13:43.206Z,99.99
2018-07-04T05:14:43.086Z,99.99
2018-07-04T05:15:42.980Z,99.99
2018-07-04T05:16:42.840Z,99.99
2018-07-04T05:17:42.716Z,99.99
2018-07-04T05:18:42.593Z,99.99
2018-07-04T05:19:42.473Z,99.99
2018-07-04T05:20:42.349Z,99.99
2018-07-04T05:21:42.230Z,99.99
2018-07-04T05:22:42.159Z,99.99
2018-07-04T05:23:41.983Z,99.99
2018-07-04T05:24:41.869Z,99.99
2018-07-04T05:25:41.738Z,99.99
2018-07-04T05:26:41.617Z,99.99
2018-07-04T05:27:41.504Z,99.99
2018-07-04T05:28:41.373Z,99.99
2018-07-04T05:29:41.248Z,99.99
2018-07-04T05:30:41.125Z,99.99
2018-07-04T05:31:41.003Z,99.99
2018-07-04T05:32:40.880Z,99.99
2018-07-04T05:33:40.760Z,99.99
2018-07-04T05:34:40.638Z,99.99
2018-07-04T05:35:40.514Z,99.99
2018-07-04T05:36:40.393Z,99.99
2018-07-04T05:37:40.271Z,99.99
2018-07-04T05:38:40.150Z,99.99
2018-07-04T05:39:40.026Z,99.99
2018-07-04T05:40:39.907Z,99.99
2018-07-04T05:41:39.780Z,99.99
2018-07-04T05:42:39.666Z,99.99
2018-07-04T05:43:39.536Z,99.99
2018-07-04T05:44:39.414Z,99.99
2018-07-04T05:45:39.292Z,99.99
2018-07-04T05:46:39.170Z,99.99
2018-07-04T05:47:39.078Z,99.99
2018-07-04T05:48:38.926Z,99.99
2018-07-04T05:49:38.815Z,99.99
2018-07-04T05:50:38.683Z,99.99
2018-07-04T05:51:38.563Z,99.99
2018-07-04T05:52:38.439Z,99.99
2018-07-04T05:53:38.318Z,99.99
2018-07-04T05:54:38.196Z,99.99
2018-07-04T05:55:38.073Z,99.99
2018-07-04T05:56:37.954Z,99.99
2018-07-04T05:57:37.830Z,99.99
2018-07-04T05:58:37.711Z,99.99
2018-07-04T05:59:37.690Z,99.99
2018-07-04T06:00:37.466Z,99.99
2018-07-04T06:01:37.341Z,99.99
2018-07-04T06:02:37.225Z,99.99
2018-07-04T06:03:37.101Z,99.99
2018-07-04T06:04:36.982Z,99.99
2018-07-04T06:05:36.856Z,99.99
2018-07-04T06:06:36.735Z,99.99
2018-07-04T06:07:36.613Z,99.99
2018-07-04T06:08:36.497Z,99.99
2018-07-04T06:09:36.370Z,99.99
2018-07-04T06:10:36.251Z,99.99
2018-07-04T06:11:36.129Z,99.99
2018-07-04T06:12:36.010Z,99.99
2018-07-04T06:13:35.887Z,99.99
2018-07-04T06:14:35.767Z,99.99
2018-07-04T06:15:35.649Z,99.99
2018-07-04T06:16:35.524Z,99.99
2018-07-04T06:17:35.473Z,99.99
2018-07-04T06:18:35.281Z,99.99
2018-07-04T06:19:35.159Z,99.99
2018-07-04T06:20:35.039Z,99.99
2018-07-04T06:21:34.919Z,99.99
2018-07-04T06:22:34.796Z,99.99
2018-07-04T06:23:34.674Z,99.99
2018-07-04T06:24:34.555Z,99.99
2018-07-04T06:25:34.432Z,99.99
2018-07-04T06:26:34.312Z,99.99
2018-07-04T06:27:34.192Z,99.99
2018-07-04T06:28:34.070Z,99.99
2018-07-04T06:29:33.947Z,99.99
2018-07-04T06:30:33.826Z,99.99
2018-07-04T06:31:33.706Z,99.99
2018-07-04T06:32:33.586Z,99.99
2018-07-04T06:33:33.466Z,99.99
2018-07-04T06:34:33.345Z,99.99
2018-07-04T06:35:33.222Z,99.99
2018-07-04T06:36:33.103Z,99.99
2018-07-04T06:37:32.979Z,99.99
2018-07-04T06:38:32.861Z,99.99
2018-07-04T06:39:32.740Z,99.99
2018-07-04T06:40:32.618Z,99.99
2018-07-04T06:41:32.497Z,99.99
2018-07-04T06:42:32.376Z,99.99
2018-07-04T06:43:32.259Z,99.99
2018-07-04T06:44:32.139Z,99.99
2018-07-04T06:45:32.014Z,99.99
2018-07-04T06:46:31.894Z,99.99
2018-07-04T06:47:31.775Z,99.99
2018-07-04T06:48:31.654Z,99.99
2018-07-04T06:49:31.534Z,99.99
2018-07-04T06:50:31.413Z,99.99
2018-07-04T06:51:31.294Z,99.99
2018-07-04T06:52:31.172Z,99.99
2018-07-04T06:53:31.051Z,99.99
2018-07-04T06:54:30.983Z,99.99
2018-07-04T06:55:30.811Z,99.99
2018-07-04T06:56:30.689Z,99.99
2018-07-04T06:57:30.571Z,99.99
2018-07-04T06:58:30.452Z,99.99
2018-07-04T06:59:30.343Z,97.56
2018-07-04T07:00:30.211Z,96.89
2018-07-04T07:01:30.088Z,96.13
2018-07-04T07:02:29.971Z,96.22
2018-07-04T07:03:29.852Z,97.66
2018-07-04T07:04:29.727Z,99.99
2018-07-04T07:05:29.606Z,99.77
2018-07-04T07:06:29.490Z,99.58
2018-07-04T07:07:29.365Z,99.68
2018-07-04T07:08:29.300Z,99.87
2018-07-04T07:09:29.132Z,99.49
2018-07-04T07:10:29.007Z,99.99
2018-07-04T07:11:28.889Z,99.63
2018-07-04T07:12:28.768Z,97.61
2018-07-04T07:13:28.644Z,98.29
2018-07-04T07:14:28.599Z,99.05
2018-07-04T07:15:28.407Z,99.49
2018-07-04T07:16:28.290Z,98.43
2018-07-04T07:17:28.166Z,97.86
2018-07-04T07:18:28.046Z,99.29
2018-07-04T07:19:27.930Z,99.87
2018-07-04T07:20:27.811Z,99.99
2018-07-04T07:21:27.689Z,99.82
2018-07-04T07:22:27.569Z,99.99
2018-07-04T07:23:27.447Z,99.99
2018-07-04T07:24:27.328Z,99.99
2018-07-04T07:25:27.207Z,99.99
2018-07-04T07:26:27.090Z,99.99
2018-07-04T07:27:26.996Z,99.99
2018-07-04T07:28:26.849Z,99.99
2018-07-04T07:29:26.726Z,99.99
2018-07-04T07:30:26.610Z,99.99
2018-07-04T07:31:26.489Z,99.99
2018-07-04T07:32:26.368Z,99.99
2018-07-04T07:33:26.261Z,99.99
2018-07-04T07:34:26.300Z,99.99
2018-07-04T07:35:26.011Z,99.99
2018-07-04T07:36:25.886Z,99.99
2018-07-04T07:37:25.768Z,99.99
2018-07-04T07:38:25.648Z,99.99
2018-07-04T07:39:25.529Z,99.99
2018-07-04T07:40:25.404Z,99.99
2018-07-04T07:41:25.285Z,99.99
2018-07-04T07:42:25.168Z,99.99
2018-07-04T07:43:25.048Z,99.99
2018-07-04T07:44:24.946Z,99.99
2018-07-04T07:45:24.809Z,99.99
2018-07-04T07:46:24.687Z,99.99
2018-07-04T07:47:24.564Z,99.92
2018-07-04T07:48:24.444Z,99.99
2018-07-04T07:49:24.326Z,99.30
2018-07-04T07:50:24.205Z,99.25
2018-07-04T07:51:24.086Z,98.68
2018-07-04T07:52:23.969Z,98.72
2018-07-04T07:53:23.850Z,98.91
2018-07-04T07:54:23.758Z,97.91
2018-07-04T07:55:23.609Z,98.29
2018-07-04T07:56:23.491Z,96.85
2018-07-04T07:57:23.372Z,96.56
2018-07-04T07:58:23.252Z,96.85
2018-07-04T07:59:23.132Z,98.24
2018-07-04T08:00:23.018Z,98.44
2018-07-04T08:01:22.894Z,98.05
2018-07-04T08:02:22.812Z,97.24
2018-07-04T08:03:22.659Z,95.50
2018-07-04T08:04:22.539Z,95.50
2018-07-04T08:05:24.377Z,92.04
2018-07-04T08:06:22.304Z,92.86
2018-07-04T08:07:22.187Z,94.40
2018-07-04T08:08:22.064Z,93.05
2018-07-04T08:09:21.955Z,94.01
2018-07-04T08:10:21.828Z,94.40
2018-07-04T08:11:21.715Z,98.05
2018-07-04T08:12:21.591Z,94.21
2018-07-04T08:13:21.472Z,93.91
2018-07-04T08:14:21.358Z,92.43
2018-07-04T08:15:21.233Z,93.68
2018-07-04T08:16:21.121Z,92.91
2018-07-04T08:17:20.998Z,91.90
2018-07-04T08:18:20.883Z,90.69
2018-07-04T08:19:20.763Z,92.04
2018-07-04T08:20:20.644Z,87.33
2018-07-04T08:21:20.523Z,88.33
2018-07-04T08:22:20.404Z,89.29
2018-07-04T08:23:20.289Z,85.83
2018-07-04T08:24:20.172Z,85.93
2018-07-04T08:25:20.053Z,87.18
2018-07-04T08:26:19.948Z,85.49
2018-07-04T08:27:19.818Z,84.05
2018-07-04T08:28:19.700Z,79.33
2018-07-04T08:29:19.579Z,82.89
2018-07-04T08:30:19.460Z,85.24
2018-07-04T08:31:19.341Z,77.98
2018-07-04T08:32:19.225Z,80.68
2018-07-04T08:33:19.105Z,77.69
2018-07-04T08:34:18.987Z,79.48
2018-07-04T08:35:18.872Z,79.19
2018-07-04T08:36:18.755Z,79.00
2018-07-04T08:37:18.635Z,80.50
2018-07-04T08:38:18.520Z,83.39
2018-07-04T08:39:18.407Z,82.09
2018-07-04T08:40:18.283Z,82.19
2018-07-04T08:41:18.167Z,83.53
2018-07-04T08:42:18.045Z,87.38
2018-07-04T08:43:17.927Z,88.34
2018-07-04T08:44:17.809Z,87.96
2018-07-04T08:45:17.691Z,89.01
2018-07-04T08:46:17.572Z,89.78
2018-07-04T08:47:17.457Z,89.30
2018-07-04T08:48:17.338Z,91.03
2018-07-04T08:49:17.215Z,88.82
2018-07-04T08:50:17.098Z,88.82
2018-07-04T08:51:17.236Z,87.76
2018-07-04T08:52:16.862Z,84.54
2018-07-04T08:53:16.744Z,82.42
2018-07-04T08:54:16.625Z,84.29
2018-07-04T08:55:16.506Z,84.48
2018-07-04T08:56:16.390Z,83.37
2018-07-04T08:57:16.273Z,80.91
2018-07-04T08:58:16.197Z,77.06
2018-07-04T08:59:16.034Z,77.73
2018-07-04T09:00:15.917Z,75.99
2018-07-04T09:01:15.801Z,76.96
2018-07-04T09:02:15.684Z,76.09
2018-07-04T09:03:15.565Z,74.78
2018-07-04T09:04:15.448Z,68.61
2018-07-04T09:05:15.327Z,66.07
2018-07-04T09:06:15.212Z,65.88
2018-07-04T09:07:15.093Z,68.87
2018-07-04T09:08:14.975Z,68.84
2018-07-04T09:09:14.859Z,69.67
2018-07-04T09:10:14.743Z,72.13
2018-07-04T09:11:14.634Z,75.88
2018-07-04T09:12:14.506Z,74.34
2018-07-04T09:13:14.390Z,73.67
2018-07-04T09:14:14.271Z,73.00
2018-07-04T09:15:14.199Z,70.59
2018-07-04T09:16:14.038Z,70.40
2018-07-04T09:17:13.951Z,70.98
2018-07-04T09:18:13.811Z,72.13
2018-07-04T09:19:13.689Z,73.90
2018-07-04T09:20:13.564Z,73.99
2018-07-04T09:21:13.445Z,75.54
2018-07-04T09:22:13.329Z,73.99
2018-07-04T09:23:13.209Z,74.38
2018-07-04T09:24:13.095Z,73.13
2018-07-04T09:25:12.973Z,73.80
2018-07-04T09:26:12.857Z,72.84
2018-07-04T09:27:12.742Z,74.29
2018-07-04T09:28:12.622Z,73.80
2018-07-04T09:29:12.501Z,76.21
2018-07-04T09:30:12.385Z,77.65
2018-07-04T09:31:12.267Z,74.76
2018-07-04T09:32:12.150Z,73.80
2018-07-04T09:33:12.034Z,73.32
2018-07-04T09:34:11.916Z,74.19
2018-07-04T09:35:11.797Z,72.94
2018-07-04T09:36:11.686Z,72.80
2018-07-04T09:37:11.560Z,72.61
2018-07-04T09:38:11.443Z,73.00
2018-07-04T09:39:11.323Z,77.08
2018-07-04T09:40:11.205Z,73.13
2018-07-04T09:41:11.089Z,73.32
2018-07-04T09:42:10.969Z,73.22
2018-07-04T09:43:10.856Z,72.78
2018-07-04T09:44:10.735Z,73.84
2018-07-04T09:45:10.616Z,78.79
2018-07-04T09:46:10.504Z,76.32
2018-07-04T09:47:10.380Z,75.16
2018-07-04T09:48:10.264Z,71.44
2018-07-04T09:49:10.144Z,70.80
2018-07-04T09:50:10.027Z,67.43
2018-07-04T09:51:09.911Z,69.26
2018-07-04T09:52:09.824Z,68.23
2018-07-04T09:53:09.675Z,65.40
2018-07-04T09:54:09.558Z,64.40
2018-07-04T09:55:09.447Z,66.43
2018-07-04T09:56:09.328Z,66.91
2018-07-04T09:57:09.209Z,71.25
2018-07-04T09:58:09.093Z,71.28
2018-07-04T09:59:08.975Z,69.35
2018-07-04T10:00:08.859Z,66.56
2018-07-04T10:01:08.739Z,67.43
2018-07-04T10:02:08.623Z,64.53
2018-07-04T10:03:08.508Z,66.27
2018-07-04T10:04:08.391Z,67.52
2018-07-04T10:05:08.276Z,68.55
2018-07-04T10:06:08.158Z,66.56
2018-07-04T10:07:08.045Z,65.98
2018-07-04T10:08:07.927Z,64.05
2018-07-04T10:09:07.809Z,62.12
2018-07-04T10:10:07.690Z,61.35
2018-07-04T10:11:07.574Z,61.35
2018-07-04T10:12:07.458Z,63.57
2018-07-04T10:13:07.343Z,59.90
2018-07-04T10:14:07.223Z,64.53
2018-07-04T10:15:07.112Z,64.63
2018-07-04T10:16:06.994Z,59.97
2018-07-04T10:17:06.877Z,60.26
2018-07-04T10:18:06.759Z,63.50
2018-07-04T10:19:06.648Z,65.63
2018-07-04T10:20:06.531Z,73.66
2018-07-04T10:21:06.414Z,81.27
2018-07-04T10:22:06.295Z,84.17
2018-07-04T10:23:06.181Z,88.31
2018-07-04T10:24:06.066Z,91.30
2018-07-04T10:25:05.951Z,94.10
2018-07-04T10:26:05.832Z,95.26
2018-07-04T10:27:05.717Z,96.99
2018-07-04T10:28:05.600Z,94.63
2018-07-04T10:29:05.487Z,87.78
2018-07-04T10:30:05.370Z,81.80
2018-07-04T10:31:05.255Z,79.19
2018-07-04T10:32:05.144Z,77.36
2018-07-04T10:33:05.024Z,71.28
2018-07-04T10:34:04.910Z,68.68
2018-07-04T10:35:04.791Z,71.28
2018-07-04T10:36:04.678Z,68.39
2018-07-04T10:37:04.562Z,68.45
2018-07-04T10:38:04.444Z,69.90
2018-07-04T10:39:04.329Z,67.30
2018-07-04T10:40:04.213Z,69.03
2018-07-04T10:41:04.096Z,67.58
2018-07-04T10:42:03.994Z,68.26
2018-07-04T10:43:03.865Z,68.35
2018-07-04T10:44:03.754Z,70.76
2018-07-04T10:45:03.637Z,70.76
2018-07-04T10:46:03.516Z,69.80
2018-07-04T10:47:03.399Z,70.19
2018-07-04T10:48:03.284Z,67.74
2018-07-04T10:49:03.166Z,66.97
2018-07-04T10:50:03.050Z,70.73
2018-07-04T10:51:02.964Z,71.60
2018-07-04T10:52:02.816Z,74.78
2018-07-04T10:53:02.698Z,78.34
2018-07-04T10:54:02.584Z,85.82
2018-07-04T10:55:05.443Z,91.60
2018-07-04T10:56:02.352Z,93.72
2018-07-04T10:57:02.235Z,94.59
2018-07-04T10:58:02.126Z,95.26
2018-07-04T10:59:02.004Z,95.55
2018-07-04T11:00:02.098Z,94.82
2018-07-04T11:01:01.771Z,92.22
2018-07-04T11:02:01.665Z,90.97
2018-07-04T11:03:01.538Z,91.69
2018-07-04T11:04:01.420Z,92.17
2018-07-04T11:05:01.609Z,88.70
2018-07-04T11:06:01.190Z,73.57
2018-07-04T11:07:01.072Z,69.71
2018-07-04T11:08:00.957Z,67.49
2018-07-04T11:09:00.838Z,69.61
2018-07-04T11:10:00.724Z,68.84
2018-07-04T11:11:00.608Z,67.91
2018-07-04T11:12:00.489Z,68.59
2018-07-04T11:13:00.373Z,66.85
2018-07-04T11:14:00.257Z,67.62
2018-07-04T11:15:00.141Z,66.62
2018-07-04T11:16:00.040Z,64.82
2018-07-04T11:17:00.024Z,67.85
2018-07-04T11:18:02.447Z,67.65
2018-07-04T11:18:59.677Z,66.72
2018-07-04T11:19:59.935Z,68.78
2018-07-04T11:20:59.445Z,69.88
2018-07-04T11:21:59.330Z,66.43
2018-07-04T11:22:59.215Z,63.76
2018-07-04T11:23:59.098Z,62.88
2018-07-04T11:24:58.984Z,61.43
2018-07-04T11:25:58.869Z,59.15
2018-07-04T11:26:58.754Z,58.64
2018-07-04T11:27:58.636Z,59.58
2018-07-04T11:28:58.523Z,59.67
2018-07-04T11:29:58.404Z,60.99
2018-07-04T11:30:58.289Z,61.96
2018-07-04T11:31:58.174Z,63.60
2018-07-04T11:32:58.056Z,63.67
2018-07-04T11:33:57.944Z,62.96
2018-07-04T11:34:57.825Z,64.59
2018-07-04T11:35:57.712Z,64.02
2018-07-04T11:36:57.600Z,63.24
2018-07-04T11:37:57.480Z,63.50
2018-07-04T11:38:57.364Z,63.79
2018-07-04T11:39:57.248Z,64.56
2018-07-04T11:40:57.129Z,65.43
2018-07-04T11:41:57.012Z,71.22
2018-07-04T11:42:56.896Z,85.20
2018-07-04T11:43:56.780Z,89.16
2018-07-04T11:44:56.662Z,93.44
2018-07-04T11:45:56.547Z,91.57
2018-07-04T11:46:56.430Z,91.72
2018-07-04T11:47:56.311Z,90.38
2018-07-04T11:48:56.197Z,92.63
2018-07-04T11:49:56.075Z,95.03
2018-07-04T11:50:55.962Z,98.57
2018-07-04T11:51:55.840Z,91.62
2018-07-04T11:52:55.721Z,98.05
2018-07-04T11:53:55.601Z,99.99
2018-07-04T11:54:55.484Z,99.99
2018-07-04T11:55:55.363Z,99.99
2018-07-04T11:56:55.288Z,97.38
2018-07-04T11:57:55.694Z,99.99
2018-07-04T11:58:55.007Z,99.99
2018-07-04T11:59:54.938Z,99.99
2018-07-04T12:00:54.909Z,99.99
2018-07-04T12:01:55.021Z,99.99
2018-07-04T12:02:54.532Z,99.99
2018-07-04T12:04:02.513Z,99.99
2018-07-04T12:06:02.617Z,97.62
2018-07-04T12:07:02.867Z,92.51
2018-07-04T12:08:55.109Z,87.10
2018-07-04T12:09:55.035Z,88.31
2018-07-04T12:11:47.737Z,89.72
2018-07-04T12:12:47.249Z,91.79
2018-07-04T12:14:40.181Z,90.55
2018-07-04T12:15:40.014Z,89.87
2018-07-04T12:17:32.800Z,89.29
2018-07-04T12:18:32.331Z,86.56
2018-07-04T12:20:25.344Z,87.42
2018-07-04T12:21:24.868Z,86.60
2018-07-04T12:23:17.606Z,77.55
2018-07-04T12:24:17.435Z,73.77
2018-07-04T12:26:10.614Z,70.72
2018-07-04T12:27:10.359Z,70.01
2018-07-04T12:29:02.977Z,66.40
2018-07-04T12:30:02.547Z,65.66
2018-07-04T12:31:57.299Z,69.87
2018-07-04T12:32:57.466Z,73.60
2018-07-04T12:34:50.163Z,74.49
2018-07-04T12:35:49.354Z,77.15
2018-07-04T12:37:42.342Z,78.73
2018-07-04T12:38:41.910Z,77.48
2018-07-04T12:40:36.421Z,74.20
2018-07-04T12:41:34.485Z,73.47
2018-07-04T12:43:27.190Z,66.30
2018-07-04T12:44:34.542Z,66.85
2018-07-04T12:46:32.843Z,69.90
2018-07-04T12:47:32.307Z,68.52
2018-07-04T12:49:25.141Z,70.25
2018-07-04T12:50:24.787Z,71.41
2018-07-04T12:52:17.816Z,70.83
2018-07-04T12:53:17.603Z,71.08
2018-07-04T12:55:10.054Z,73.53
2018-07-04T12:56:09.908Z,75.74
2018-07-04T12:58:02.953Z,73.24
2018-07-04T12:59:02.464Z,75.55
2018-07-04T13:00:55.410Z,72.12
2018-07-04T13:01:55.041Z,74.37
2018-07-04T13:03:47.753Z,80.51
2018-07-04T13:04:47.582Z,78.19
2018-07-04T13:06:40.642Z,75.88
2018-07-04T13:07:40.144Z,73.27
2018-07-04T13:09:33.198Z,76.55
2018-07-04T13:10:32.938Z,74.52
2018-07-04T13:12:26.633Z,76.75
2018-07-04T13:13:26.180Z,77.86
2018-07-04T13:15:19.169Z,76.71
2018-07-04T13:16:18.758Z,73.78
2018-07-04T13:18:11.721Z,73.43
2018-07-04T13:19:11.318Z,72.47
2018-07-04T13:21:04.397Z,72.27
2018-07-04T13:22:03.921Z,69.57
2018-07-04T13:23:56.980Z,66.62